Time,TemperatureF,DewpointF,PressureIn,WindDirection,WindDirectionDegrees,WindSpeedMPH,WindSpeedGustMPH,Humidity,HourlyPrecipIn,Conditions,Clouds,dailyrainin,SoftwareType,DateUTC
2013-06-03 00:09:00,54.3,49.6,29.43,SSW,202,6.3,-999.0,84,-99.99,,,0.00,Acu-Link.com,2013-06-03 07:09:00,
2013-06-03 00:24:00,54.0,49.9,29.44,SSE,157,7.8,-999.0,86,-99.99,,,0.00,Acu-Link.com,2013-06-03 07:24:00,
2013-06-03 00:40:00,54.0,49.9,29.45,SSE,157,1.7,-999.0,86,-99.99,,,0.00,Acu-Link.com,2013-06-03 07:40:00,
2013-06-03 00:55:00,53.8,50.0,29.44,South,180,4.2,-999.0,87,-99.99,,,0.00,Acu-Link.com,2013-06-03 07:55:00,
2013-06-03 01:10:00,53.4,49.9,29.45,SE,135,4.7,-999.0,88,-99.99,,,0.00,Acu-Link.com,2013-06-03 08:10:00,
2013-06-03 01:27:00,53.4,49.9,29.44,SW,225,4.7,-999.0,88,-99.99,,,0.00,Acu-Link.com,2013-06-03 08:27:00,
2013-06-03 01:42:00,53.4,49.9,29.44,South,180,4.7,-999.0,88,-99.99,,,0.00,Acu-Link.com,2013-06-03 08:42:00,
2013-06-03 01:57:00,52.9,49.7,29.45,South,180,7.3,-999.0,89,-99.99,,,0.00,Acu-Link.com,2013-06-03 08:57:00,
2013-06-03 02:12:00,52.9,50.0,29.44,SSW,202,6.8,-999.0,90,-99.99,,,0.00,Acu-Link.com,2013-06-03 09:12:00,
2013-06-03 02:27:00,52.9,50.0,29.45,SSW,202,7.3,-999.0,90,-99.99,,,0.00,Acu-Link.com,2013-06-03 09:27:00,
2013-06-03 02:42:00,52.7,49.8,29.45,SSW,202,8.9,-999.0,90,-99.99,,,0.00,Acu-Link.com,2013-06-03 09:42:00,
2013-06-03 02:57:00,52.5,49.7,29.46,South,180,2.7,-999.0,90,-99.99,,,0.00,Acu-Link.com,2013-06-03 09:57:00,
2013-06-03 03:13:00,52.3,49.5,29.47,North,0,3.7,-999.0,90,-99.99,,,0.00,Acu-Link.com,2013-06-03 10:13:00,
2013-06-03 03:28:00,52.2,49.7,29.46,SSW,202,0.0,-999.0,91,-99.99,,,0.00,Acu-Link.com,2013-06-03 10:28:00,
2013-06-03 03:43:00,52.2,49.7,29.48,SW,225,1.7,-999.0,91,-99.99,,,0.00,Acu-Link.com,2013-06-03 10:43:00,
2013-06-03 03:58:00,51.6,49.1,29.47,SSW,202,0.0,-999.0,91,-99.99,,,0.00,Acu-Link.com,2013-06-03 10:58:00,
2013-06-03 04:13:00,51.1,48.9,29.48,SSW,202,0.0,-999.0,92,-99.99,,,0.00,Acu-Link.com,2013-06-03 11:13:00,
2013-06-03 04:29:00,50.5,48.8,29.47,SW,225,0.0,-999.0,94,-99.99,,,0.00,Acu-Link.com,2013-06-03 11:29:00,
2013-06-03 04:44:00,50.4,48.7,29.47,NE,45,0.0,-999.0,94,-99.99,,,0.00,Acu-Link.com,2013-06-03 11:44:00,
2013-06-03 04:59:00,50.5,49.4,29.47,SW,225,2.2,-999.0,96,-99.99,,,0.00,Acu-Link.com,2013-06-03 11:59:00,
2013-06-03 05:14:00,50.4,49.0,29.48,SW,225,0.0,-999.0,95,-99.99,,,0.00,Acu-Link.com,2013-06-03 12:14:00,
2013-06-03 05:29:00,50.5,49.1,29.47,SW,225,0.0,-999.0,95,-99.99,,,0.00,Acu-Link.com,2013-06-03 12:29:00,
2013-06-03 05:45:00,50.0,48.6,29.49,West,270,0.0,-999.0,95,-99.99,,,0.00,Acu-Link.com,2013-06-03 12:45:00,
2013-06-03 06:00:00,49.8,48.7,29.48,South,180,0.0,-999.0,96,-99.99,,,0.00,Acu-Link.com,2013-06-03 13:00:00,
2013-06-03 06:15:00,49.6,48.2,29.49,NNW,337,0.0,-999.0,95,-99.99,,,0.00,Acu-Link.com,2013-06-03 13:15:00,
2013-06-03 06:30:00,49.6,48.5,29.49,SW,225,0.0,-999.0,96,-99.99,,,0.00,Acu-Link.com,2013-06-03 13:30:00,
2013-06-03 06:46:00,50.2,49.1,29.50,ENE,67,0.0,-999.0,96,-99.99,,,0.00,Acu-Link.com,2013-06-03 13:46:00,
2013-06-03 07:01:00,51.6,50.2,29.51,East,90,0.0,-999.0,95,-99.99,,,0.00,Acu-Link.com,2013-06-03 14:01:00,
2013-06-03 07:46:00,54.0,50.5,29.52,SE,135,1.7,-999.0,88,-99.99,,,0.00,Acu-Link.com,2013-06-03 14:46:00,
2013-06-03 08:02:00,54.5,50.4,29.52,SW,225,1.1,-999.0,86,-99.99,,,0.00,Acu-Link.com,2013-06-03 15:02:00,
2013-06-03 08:17:00,55.6,50.8,29.52,South,180,0.0,-999.0,84,-99.99,,,0.00,Acu-Link.com,2013-06-03 15:17:00,
2013-06-03 08:32:00,57.2,51.1,29.53,SSW,202,0.0,-999.0,80,-99.99,,,0.00,Acu-Link.com,2013-06-03 15:32:00,
2013-06-03 08:47:00,58.8,51.3,29.54,SSE,157,1.7,-999.0,76,-99.99,,,0.00,Acu-Link.com,2013-06-03 15:47:00,
2013-06-03 09:02:00,60.3,52.0,29.53,South,180,1.7,-999.0,74,-99.99,,,0.00,Acu-Link.com,2013-06-03 16:02:00,
2013-06-03 09:17:00,64.4,52.4,29.53,NE,45,1.7,-999.0,65,-99.99,,,0.00,Acu-Link.com,2013-06-03 16:17:00,
2013-06-03 09:32:00,65.7,52.3,29.53,NNE,22,2.7,-999.0,62,-99.99,,,0.00,Acu-Link.com,2013-06-03 16:32:00,
2013-06-03 09:48:00,66.9,52.1,29.53,NW,315,3.7,-999.0,59,-99.99,,,0.00,Acu-Link.com,2013-06-03 16:48:00,
2013-06-03 10:03:00,65.3,51.9,29.54,South,180,3.7,-999.0,62,-99.99,,,0.00,Acu-Link.com,2013-06-03 17:03:00,
2013-06-03 10:18:00,63.3,52.2,29.54,SW,225,6.3,-999.0,67,-99.99,,,0.00,Acu-Link.com,2013-06-03 17:18:00,
2013-06-03 10:33:00,64.6,52.1,29.55,SSW,202,4.2,-999.0,64,-99.99,,,0.00,Acu-Link.com,2013-06-03 17:33:00,
2013-06-03 10:49:00,63.9,52.3,29.56,SSE,157,3.7,-999.0,66,-99.99,,,0.00,Acu-Link.com,2013-06-03 17:49:00,
2013-06-03 11:04:00,64.0,51.6,29.55,SW,225,7.3,-999.0,64,-99.99,,,0.00,Acu-Link.com,2013-06-03 18:04:00,
2013-06-03 11:19:00,64.6,51.7,29.55,SSE,157,6.8,-999.0,63,-99.99,,,0.00,Acu-Link.com,2013-06-03 18:19:00,
2013-06-03 11:34:00,64.4,51.5,29.55,South,180,6.8,-999.0,63,-99.99,,,0.00,Acu-Link.com,2013-06-03 18:34:00,
2013-06-03 11:49:00,65.7,52.3,29.55,SSW,202,4.7,-999.0,62,-99.99,,,0.00,Acu-Link.com,2013-06-03 18:49:00,
2013-06-03 12:05:00,65.3,51.9,29.56,SSW,202,3.7,-999.0,62,-99.99,,,0.00,Acu-Link.com,2013-06-03 19:05:00,
2013-06-03 12:20:00,65.8,52.4,29.56,SW,225,5.3,-999.0,62,-99.99,,,0.00,Acu-Link.com,2013-06-03 19:20:00,
2013-06-03 12:35:00,66.9,52.1,29.55,SSW,202,5.3,-999.0,59,-99.99,,,0.00,Acu-Link.com,2013-06-03 19:35:00,
2013-06-03 12:50:00,66.9,52.6,29.56,SSW,202,5.8,-999.0,60,-99.99,,,0.00,Acu-Link.com,2013-06-03 19:50:00,
2013-06-03 13:05:00,66.0,51.7,29.56,SW,225,6.3,-999.0,60,-99.99,,,0.00,Acu-Link.com,2013-06-03 20:05:00,
2013-06-03 13:21:00,66.9,52.1,29.56,ESE,112,8.3,-999.0,59,-99.99,,,0.00,Acu-Link.com,2013-06-03 20:21:00,
2013-06-03 13:36:00,68.0,52.2,29.56,South,180,6.8,-999.0,57,-99.99,,,0.00,Acu-Link.com,2013-06-03 20:36:00,
2013-06-03 14:06:00,67.3,52.0,29.57,SSW,202,6.8,-999.0,58,-99.99,,,0.00,Acu-Link.com,2013-06-03 21:06:00,
2013-06-03 14:22:00,68.4,52.6,29.56,SSW,202,4.2,-999.0,57,-99.99,,,0.00,Acu-Link.com,2013-06-03 21:22:00,
2013-06-03 14:52:00,67.5,52.2,29.57,SSE,157,7.8,-999.0,58,-99.99,,,0.00,Acu-Link.com,2013-06-03 21:52:00,
2013-06-03 15:07:00,68.2,51.9,29.56,SW,225,6.3,-999.0,56,-99.99,,,0.00,Acu-Link.com,2013-06-03 22:07:00,
2013-06-03 15:22:00,68.4,52.6,29.56,South,180,7.3,-999.0,57,-99.99,,,0.00,Acu-Link.com,2013-06-03 22:22:00,
2013-06-03 15:38:00,68.5,52.2,29.55,SW,225,7.8,-999.0,56,-99.99,,,0.00,Acu-Link.com,2013-06-03 22:38:00,
2013-06-03 15:53:00,68.7,52.4,29.56,West,270,8.9,-999.0,56,-99.99,,,0.00,Acu-Link.com,2013-06-03 22:53:00,
2013-06-03 16:08:00,69.4,52.0,29.55,SSW,202,6.8,-999.0,54,-99.99,,,0.00,Acu-Link.com,2013-06-03 23:08:00,
2013-06-03 16:23:00,70.0,52.6,29.56,SW,225,6.8,-999.0,54,-99.99,,,0.00,Acu-Link.com,2013-06-03 23:23:00,
2013-06-03 16:38:00,69.6,52.2,29.56,SSW,202,4.2,-999.0,54,-99.99,,,0.00,Acu-Link.com,2013-06-03 23:38:00,
2013-06-03 16:54:00,70.0,52.6,29.55,SSW,202,6.3,-999.0,54,-99.99,,,0.00,Acu-Link.com,2013-06-03 23:54:00,
2013-06-03 17:09:00,68.7,51.9,29.55,SSW,202,12.5,-999.0,55,-99.99,,,0.00,Acu-Link.com,2013-06-04 00:09:00,
2013-06-03 17:24:00,69.4,52.0,29.54,SSW,202,10.9,-999.0,54,-99.99,,,0.00,Acu-Link.com,2013-06-04 00:24:00,
2013-06-03 17:40:00,68.9,52.1,29.54,WSW,247,4.7,-999.0,55,-99.99,,,0.00,Acu-Link.com,2013-06-04 00:40:00,
2013-06-03 17:55:00,69.6,52.2,29.53,SSW,202,8.9,-999.0,54,-99.99,,,0.00,Acu-Link.com,2013-06-04 00:55:00,
2013-06-03 18:10:00,70.3,52.3,29.53,WSW,247,3.7,-999.0,53,-99.99,,,0.00,Acu-Link.com,2013-06-04 01:10:00,
2013-06-03 18:25:00,69.8,51.9,29.53,SSW,202,4.7,-999.0,53,-99.99,,,0.00,Acu-Link.com,2013-06-04 01:25:00,
2013-06-03 18:40:00,70.2,52.3,29.53,SW,225,3.2,-999.0,53,-99.99,,,0.00,Acu-Link.com,2013-06-04 01:40:00,
2013-06-03 18:56:00,69.6,51.7,29.55,South,180,3.7,-999.0,53,-99.99,,,0.00,Acu-Link.com,2013-06-04 01:56:00,
2013-06-03 19:11:00,68.5,51.2,29.54,SW,225,4.2,-999.0,54,-99.99,,,0.00,Acu-Link.com,2013-06-04 02:11:00,
2013-06-03 19:26:00,67.6,51.3,29.55,South,180,8.3,-999.0,56,-99.99,,,0.00,Acu-Link.com,2013-06-04 02:26:00,
2013-06-03 19:42:00,68.9,51.6,29.55,SW,225,1.7,-999.0,54,-99.99,,,0.00,Acu-Link.com,2013-06-04 02:42:00,
2013-06-03 19:57:00,66.2,51.0,29.56,WNW,292,4.7,-999.0,58,-99.99,,,0.00,Acu-Link.com,2013-06-04 02:57:00,
2013-06-03 20:12:00,64.4,50.7,29.56,SSE,157,0.0,-999.0,61,-99.99,,,0.00,Acu-Link.com,2013-06-04 03:12:00,
2013-06-03 20:27:00,63.1,50.3,29.55,NE,45,1.1,-999.0,63,-99.99,,,0.00,Acu-Link.com,2013-06-04 03:27:00,
2013-06-03 20:43:00,61.2,50.2,29.56,North,0,2.7,-999.0,67,-99.99,,,0.00,Acu-Link.com,2013-06-04 03:43:00,
2013-06-03 20:58:00,59.9,50.1,29.57,NNE,22,1.7,-999.0,70,-99.99,,,0.00,Acu-Link.com,2013-06-04 03:58:00,
2013-06-03 21:13:00,59.0,50.0,29.58,ENE,67,1.7,-999.0,72,-99.99,,,0.00,Acu-Link.com,2013-06-04 04:13:00,
2013-06-03 21:29:00,58.3,49.7,29.58,NE,45,1.7,-999.0,73,-99.99,,,0.00,Acu-Link.com,2013-06-04 04:29:00,
2013-06-03 21:44:00,57.9,50.0,29.57,NE,45,1.1,-999.0,75,-99.99,,,0.00,Acu-Link.com,2013-06-04 04:44:00,
2013-06-03 21:59:00,57.4,49.9,29.58,NNE,22,2.7,-999.0,76,-99.99,,,0.00,Acu-Link.com,2013-06-04 04:59:00,
2013-06-03 22:14:00,57.0,49.9,29.58,SSE,157,0.0,-999.0,77,-99.99,,,0.00,Acu-Link.com,2013-06-04 05:14:00,
2013-06-03 22:30:00,56.5,49.7,29.59,NNE,22,2.2,-999.0,78,-99.99,,,0.00,Acu-Link.com,2013-06-04 05:30:00,
2013-06-03 22:46:00,55.9,49.5,29.58,SSW,202,0.0,-999.0,79,-99.99,,,0.00,Acu-Link.com,2013-06-04 05:46:00,
2013-06-03 23:16:00,54.9,49.5,29.59,SSW,202,0.0,-999.0,82,-99.99,,,0.00,Acu-Link.com,2013-06-04 06:16:00,
2013-06-03 23:32:00,54.1,49.4,29.59,NNE,22,0.0,-999.0,84,-99.99,,,0.00,Acu-Link.com,2013-06-04 06:32:00,
2013-06-03 23:48:00,54.1,49.4,29.59,SSE,157,0.0,-999.0,84,-99.99,,,0.00,Acu-Link.com,2013-06-04 06:48:00,